createdAt,value
2018-05-01T00:00:22.459Z,1007.44
2018-05-01T00:01:22.478Z,1007.42
2018-05-01T00:02:22.489Z,1007.43
2018-05-01T00:03:22.546Z,1007.42
2018-05-01T00:04:22.519Z,1007.42
2018-05-01T00:05:22.535Z,1007.44
2018-05-01T00:06:22.549Z,1007.43
2018-05-01T00:07:22.569Z,1007.44
2018-05-01T00:08:22.583Z,1007.41
2018-05-01T00:09:22.597Z,1007.42
2018-05-01T00:10:22.612Z,1007.40
2018-05-01T00:11:22.629Z,1007.40
2018-05-01T00:12:22.650Z,1007.39
2018-05-01T00:13:22.661Z,1007.40
2018-05-01T00:14:22.676Z,1007.38
2018-05-01T00:15:22.691Z,1007.41
2018-05-01T00:16:22.715Z,1007.39
2018-05-01T00:17:22.725Z,1007.44
2018-05-01T00:18:22.789Z,1007.46
2018-05-01T00:19:22.762Z,1007.42
2018-05-01T00:20:22.779Z,1007.36
2018-05-01T00:21:22.790Z,1007.37
2018-05-01T00:22:22.807Z,1007.38
2018-05-01T00:23:22.823Z,1007.40
2018-05-01T00:24:22.837Z,1007.39
2018-05-01T00:25:22.852Z,1007.39
2018-05-01T00:26:22.870Z,1007.40
2018-05-01T00:27:22.887Z,1007.40
2018-05-01T00:28:22.905Z,1007.38
2018-05-01T00:29:22.915Z,1007.40
2018-05-01T00:30:22.988Z,1007.36
2018-05-01T00:31:22.950Z,1007.36
2018-05-01T00:32:22.970Z,1007.31
2018-05-01T00:33:22.987Z,1007.31
2018-05-01T00:34:23.003Z,1007.33
2018-05-01T00:35:23.074Z,1007.26
2018-05-01T00:36:23.031Z,1007.33
2018-05-01T00:37:23.057Z,1007.27
2018-05-01T00:38:23.066Z,1007.23
2018-05-01T00:39:23.075Z,1007.22
2018-05-01T00:40:23.100Z,1007.27
2018-05-01T00:41:23.165Z,1007.23
2018-05-01T00:42:23.130Z,1007.20
2018-05-01T00:43:23.140Z,1007.22
2018-05-01T00:44:23.157Z,1007.26
2018-05-01T00:45:23.172Z,1007.21
2018-05-01T00:46:23.196Z,1007.18
2018-05-01T00:47:23.208Z,1007.20
2018-05-01T00:48:23.220Z,1007.19
2018-05-01T00:49:23.263Z,1007.23
2018-05-01T00:50:23.331Z,1007.20
2018-05-01T00:51:23.281Z,1007.21
2018-05-01T00:52:23.289Z,1007.22
2018-05-01T00:53:23.306Z,1007.21
2018-05-01T00:54:23.318Z,1007.18
2018-05-01T00:55:23.335Z,1007.16
2018-05-01T00:56:23.348Z,1007.15
2018-05-01T00:57:23.367Z,1007.17
2018-05-01T00:58:23.383Z,1007.15
2018-05-01T00:59:23.457Z,1007.17
2018-05-01T01:00:23.419Z,1007.13
2018-05-01T01:01:23.432Z,1007.18
2018-05-01T01:02:23.451Z,1007.15
2018-05-01T01:03:23.462Z,1007.18
2018-05-01T01:04:23.485Z,1007.12
2018-05-01T01:05:23.544Z,1007.11
2018-05-01T01:06:23.515Z,1007.15
2018-05-01T01:07:23.539Z,1007.16
2018-05-01T01:08:23.546Z,1007.11
2018-05-01T01:09:23.555Z,1007.10
2018-05-01T01:10:23.571Z,1007.09
2018-05-01T01:11:23.642Z,1007.10
2018-05-01T01:12:23.604Z,1007.08
2018-05-01T01:13:23.730Z,1007.09
2018-05-01T01:14:23.642Z,1007.07
2018-05-01T01:15:23.666Z,1007.09
2018-05-01T01:16:23.682Z,1007.05
2018-05-01T01:17:23.735Z,1007.03
2018-05-01T01:18:23.710Z,1007.01
2018-05-01T01:19:23.814Z,1006.99
2018-05-01T01:20:23.737Z,1006.97
2018-05-01T01:21:23.747Z,1006.97
2018-05-01T01:22:23.770Z,1006.97
2018-05-01T01:23:23.789Z,1007.02
2018-05-01T01:24:23.798Z,1006.96
2018-05-01T01:25:23.814Z,1006.96
2018-05-01T01:26:23.830Z,1006.96
2018-05-01T01:27:23.848Z,1006.95
2018-05-01T01:28:23.864Z,1006.93
2018-05-01T01:29:23.884Z,1006.93
2018-05-01T01:30:23.962Z,1006.94
2018-05-01T01:31:23.926Z,1006.93
2018-05-01T01:32:23.933Z,1006.89
2018-05-01T01:33:23.945Z,1006.91
2018-05-01T01:34:23.960Z,1006.86
2018-05-01T01:35:24.031Z,1006.86
2018-05-01T01:36:24.075Z,1006.84
2018-05-01T01:37:24.010Z,1006.84
2018-05-01T01:38:24.021Z,1006.84
2018-05-01T01:39:24.045Z,1006.82
2018-05-01T01:40:24.060Z,1006.81
2018-05-01T01:41:24.076Z,1006.80
2018-05-01T01:42:24.160Z,1006.81
2018-05-01T01:43:24.108Z,1006.78
2018-05-01T01:44:24.124Z,1006.77
2018-05-01T01:45:24.136Z,1006.74
2018-05-01T01:46:24.156Z,1006.77
2018-05-01T01:47:24.169Z,1006.76
2018-05-01T01:48:24.240Z,1006.76
2018-05-01T01:49:24.210Z,1006.75
2018-05-01T01:50:24.223Z,1006.78
2018-05-01T01:51:24.233Z,1006.73
2018-05-01T01:52:24.256Z,1006.79
2018-05-01T01:53:24.278Z,1006.76
2018-05-01T01:54:24.335Z,1006.73
2018-05-01T01:55:24.303Z,1006.76
2018-05-01T01:56:24.322Z,1006.74
2018-05-01T01:57:24.337Z,1006.74
2018-05-01T01:58:24.346Z,1006.72
2018-05-01T01:59:24.365Z,1006.72
2018-05-01T02:00:24.426Z,1006.73
2018-05-01T02:01:24.403Z,1006.74
2018-05-01T02:02:24.419Z,1006.70
2018-05-01T02:03:24.429Z,1006.71
2018-05-01T02:04:24.450Z,1006.70
2018-05-01T02:05:24.463Z,1006.70
2018-05-01T02:06:24.477Z,1006.72
2018-05-01T02:07:24.491Z,1006.72
2018-05-01T02:08:24.509Z,1006.71
2018-05-01T02:09:24.530Z,1006.74
2018-05-01T02:10:24.548Z,1006.74
2018-05-01T02:11:24.622Z,1006.70
2018-05-01T02:12:24.578Z,1006.69
2018-05-01T02:13:24.592Z,1006.71
2018-05-01T02:14:24.607Z,1006.67
2018-05-01T02:15:24.624Z,1006.66
2018-05-01T02:16:24.646Z,1006.68
2018-05-01T02:17:24.720Z,1006.65
2018-05-01T02:18:24.671Z,1006.67
2018-05-01T02:19:24.689Z,1006.68
2018-05-01T02:20:24.708Z,1006.65
2018-05-01T02:21:24.716Z,1006.67
2018-05-01T02:22:24.732Z,1006.64
2018-05-01T02:23:24.760Z,1006.66
2018-05-01T02:24:24.769Z,1006.65
2018-05-01T02:25:24.788Z,1006.66
2018-05-01T02:26:24.804Z,1006.65
2018-05-01T02:27:24.820Z,1006.72
2018-05-01T02:28:24.836Z,1006.65
2018-05-01T02:29:24.900Z,1006.69
2018-05-01T02:30:24.865Z,1006.63
2018-05-01T02:31:24.880Z,1006.65
2018-05-01T02:32:24.894Z,1006.64
2018-05-01T02:33:24.910Z,1006.67
2018-05-01T02:34:24.937Z,1006.66
2018-05-01T02:35:24.950Z,1006.64
2018-05-01T02:36:24.961Z,1006.70
2018-05-01T02:37:24.980Z,1006.65
2018-05-01T02:38:24.997Z,1006.65
2018-05-01T02:39:25.007Z,1006.67
2018-05-01T02:40:25.045Z,1006.66
2018-05-01T02:41:25.038Z,1006.66
2018-05-01T02:42:25.114Z,1006.66
2018-05-01T02:43:25.072Z,1006.68
2018-05-01T02:44:25.086Z,1006.67
2018-05-01T02:45:25.111Z,1006.65
2018-05-01T02:46:25.181Z,1006.62
2018-05-01T02:47:25.141Z,1006.66
2018-05-01T02:48:25.152Z,1006.68
2018-05-01T02:49:25.173Z,1006.70
2018-05-01T02:50:25.184Z,1006.60
2018-05-01T02:51:25.217Z,1006.66
2018-05-01T02:52:25.236Z,1006.63
2018-05-01T02:53:25.232Z,1006.62
2018-05-01T02:54:25.248Z,1006.63
2018-05-01T02:55:25.263Z,1006.61
2018-05-01T02:56:25.283Z,1006.61
2018-05-01T02:57:25.294Z,1006.62
2018-05-01T02:58:25.308Z,1006.61
2018-05-01T02:59:25.360Z,1006.68
2018-05-01T03:00:25.342Z,1006.61
2018-05-01T03:01:25.380Z,1006.70
2018-05-01T03:02:25.382Z,1006.68
2018-05-01T03:03:25.389Z,1006.65
2018-05-01T03:04:25.402Z,1006.61
2018-05-01T03:05:25.474Z,1006.63
2018-05-01T03:06:25.436Z,1006.63
2018-05-01T03:07:25.456Z,1006.60
2018-05-01T03:08:25.471Z,1006.59
2018-05-01T03:09:25.487Z,1006.61
2018-05-01T03:10:25.498Z,1006.64
2018-05-01T03:11:25.516Z,1006.60
2018-05-01T03:12:25.532Z,1006.57
2018-05-01T03:13:25.546Z,1006.60
2018-05-01T03:14:25.570Z,1006.58
2018-05-01T03:15:25.608Z,1006.56
2018-05-01T03:16:25.598Z,1006.55
2018-05-01T03:17:25.613Z,1006.56
2018-05-01T03:18:25.625Z,1006.58
2018-05-01T03:19:25.647Z,1006.57
2018-05-01T03:20:25.662Z,1006.56
2018-05-01T03:21:25.702Z,1006.62
2018-05-01T03:22:25.689Z,1006.59
2018-05-01T03:23:25.759Z,1006.57
2018-05-01T03:24:25.728Z,1006.59
2018-05-01T03:25:25.844Z,1006.63
2018-05-01T03:26:25.756Z,1006.60
2018-05-01T03:27:25.781Z,1006.64
2018-05-01T03:28:25.788Z,1006.59
2018-05-01T03:29:25.803Z,1006.62
2018-05-01T03:30:25.820Z,1006.63
2018-05-01T03:31:25.857Z,1006.63
2018-05-01T03:32:25.854Z,1006.63
2018-05-01T03:33:25.908Z,1006.62
2018-05-01T03:34:25.884Z,1006.58
2018-05-01T03:35:25.895Z,1006.61
2018-05-01T03:36:25.915Z,1006.60
2018-05-01T03:37:25.934Z,1006.60
2018-05-01T03:38:25.949Z,1006.58
2018-05-01T03:39:25.958Z,1006.53
2018-05-01T03:40:25.976Z,1006.55
2018-05-01T03:41:26.054Z,1006.56
2018-05-01T03:42:26.014Z,1006.52
2018-05-01T03:43:26.022Z,1006.50
2018-05-01T03:44:26.042Z,1006.50
2018-05-01T03:45:26.060Z,1006.52
2018-05-01T03:46:26.072Z,1006.48
2018-05-01T03:47:26.088Z,1006.46
2018-05-01T03:48:26.104Z,1006.49
2018-05-01T03:49:26.118Z,1006.49
2018-05-01T03:50:26.168Z,1006.46
2018-05-01T03:51:26.150Z,1006.47
2018-05-01T03:52:26.169Z,1006.46
2018-05-01T03:53:26.184Z,1006.46
2018-05-01T03:54:26.197Z,1006.47
2018-05-01T03:55:26.215Z,1006.46
2018-05-01T03:56:26.310Z,1006.49
2018-05-01T03:57:26.245Z,1006.47
2018-05-01T03:58:26.262Z,1006.43
2018-05-01T03:59:26.284Z,1006.44
2018-05-01T04:00:26.296Z,1006.46
2018-05-01T04:01:26.306Z,1006.42
2018-05-01T04:02:26.326Z,1006.43
2018-05-01T04:03:26.338Z,1006.43
2018-05-01T04:04:26.359Z,1006.41
2018-05-01T04:05:26.377Z,1006.37
2018-05-01T04:06:26.386Z,1006.40
2018-05-01T04:07:26.408Z,1006.44
2018-05-01T04:08:26.421Z,1006.40
2018-05-01T04:09:26.436Z,1006.41
2018-05-01T04:10:26.451Z,1006.38
2018-05-01T04:11:26.534Z,1006.33
2018-05-01T04:12:26.528Z,1006.38
2018-05-01T04:13:26.526Z,1006.41
2018-05-01T04:14:26.532Z,1006.35
2018-05-01T04:15:26.592Z,1006.39
2018-05-01T04:16:26.589Z,1006.35
2018-05-01T04:17:26.638Z,1006.30
2018-05-01T04:18:26.583Z,1006.36
2018-05-01T04:19:26.591Z,1006.36
2018-05-01T04:20:26.612Z,1006.40
2018-05-01T04:21:26.624Z,1006.34
2018-05-01T04:22:26.645Z,1006.32
2018-05-01T04:23:26.658Z,1006.33
2018-05-01T04:24:26.668Z,1006.34
2018-05-01T04:25:26.796Z,1006.35
2018-05-01T04:26:26.697Z,1006.34
2018-05-01T04:27:26.718Z,1006.37
2018-05-01T04:28:26.732Z,1006.35
2018-05-01T04:29:26.749Z,1006.33
2018-05-01T04:30:26.764Z,1006.34
2018-05-01T04:31:26.783Z,1006.34
2018-05-01T04:32:26.792Z,1006.35
2018-05-01T04:33:26.810Z,1006.35
2018-05-01T04:34:26.821Z,1006.30
2018-05-01T04:35:26.840Z,1006.34
2018-05-01T04:36:26.858Z,1006.32
2018-05-01T04:37:26.885Z,1006.29
2018-05-01T04:38:26.889Z,1006.27
2018-05-01T04:39:26.906Z,1006.31
2018-05-01T04:40:26.919Z,1006.30
2018-05-01T04:41:26.943Z,1006.25
2018-05-01T04:42:26.953Z,1006.23
2018-05-01T04:43:26.974Z,1006.24
2018-05-01T04:44:26.985Z,1006.25
2018-05-01T04:45:27.000Z,1006.24
2018-05-01T04:46:27.015Z,1006.23
2018-05-01T04:47:27.037Z,1006.19
2018-05-01T04:48:27.096Z,1006.21
2018-05-01T04:49:27.060Z,1006.21
2018-05-01T04:50:27.080Z,1006.23
2018-05-01T04:51:27.088Z,1006.25
2018-05-01T04:52:27.111Z,1006.27
2018-05-01T04:53:27.205Z,1006.21
2018-05-01T04:54:27.165Z,1006.24
2018-05-01T04:55:27.209Z,1006.22
2018-05-01T04:56:27.173Z,1006.19
2018-05-01T04:57:27.186Z,1006.20
2018-05-01T04:58:27.203Z,1006.17
2018-05-01T04:59:27.222Z,1006.19
2018-05-01T05:00:27.304Z,1006.23
2018-05-01T05:01:27.242Z,1006.22
2018-05-01T05:02:27.264Z,1006.19
2018-05-01T05:03:27.277Z,1006.17
2018-05-01T05:04:27.292Z,1006.16
2018-05-01T05:05:27.307Z,1006.17
2018-05-01T05:06:27.349Z,1006.18
2018-05-01T05:07:27.339Z,1006.23
2018-05-01T05:08:27.351Z,1006.20
2018-05-01T05:09:27.398Z,1006.23
2018-05-01T05:10:27.388Z,1006.21
2018-05-01T05:11:27.456Z,1006.19
2018-05-01T05:12:27.412Z,1006.23
2018-05-01T05:13:27.429Z,1006.25
2018-05-01T05:14:27.444Z,1006.24
2018-05-01T05:15:27.461Z,1006.25
2018-05-01T05:16:27.477Z,1006.22
2018-05-01T05:17:27.511Z,1006.26
2018-05-01T05:18:27.506Z,1006.23
2018-05-01T05:19:27.530Z,1006.21
2018-05-01T05:20:27.544Z,1006.27
2018-05-01T05:21:27.556Z,1006.24
2018-05-01T05:22:27.574Z,1006.25
2018-05-01T05:23:27.591Z,1006.24
2018-05-01T05:24:27.606Z,1006.24
2018-05-01T05:25:27.622Z,1006.24
2018-05-01T05:26:27.636Z,1006.23
2018-05-01T05:27:27.649Z,1006.26
2018-05-01T05:28:27.668Z,1006.27
2018-05-01T05:29:27.682Z,1006.30
2018-05-01T05:30:27.697Z,1006.28
2018-05-01T05:31:27.709Z,1006.28
2018-05-01T05:32:27.726Z,1006.31
2018-05-01T05:33:27.745Z,1006.29
2018-05-01T05:34:27.760Z,1006.29
2018-05-01T05:35:27.833Z,1006.27
2018-05-01T05:36:27.790Z,1006.32
2018-05-01T05:37:27.801Z,1006.32
2018-05-01T05:38:27.818Z,1006.28
2018-05-01T05:39:27.843Z,1006.29
2018-05-01T05:40:27.851Z,1006.32
2018-05-01T05:41:27.936Z,1006.32
2018-05-01T05:42:27.886Z,1006.28
2018-05-01T05:43:27.901Z,1006.29
2018-05-01T05:44:27.919Z,1006.32
2018-05-01T05:45:27.934Z,1006.24
2018-05-01T05:46:27.942Z,1006.33
2018-05-01T05:47:28.029Z,1006.31
2018-05-01T05:48:27.978Z,1006.27
2018-05-01T05:49:27.994Z,1006.33
2018-05-01T05:50:28.011Z,1006.34
2018-05-01T05:51:28.024Z,1006.35
2018-05-01T05:52:28.043Z,1006.36
2018-05-01T05:53:28.126Z,1006.34
2018-05-01T05:54:28.088Z,1006.36
2018-05-01T05:55:28.089Z,1006.36
2018-05-01T05:56:28.097Z,1006.39
2018-05-01T05:57:28.119Z,1006.39
2018-05-01T05:58:28.136Z,1006.38
2018-05-01T05:59:28.145Z,1006.38
2018-05-01T06:00:28.164Z,1006.38
2018-05-01T06:01:28.177Z,1006.44
2018-05-01T06:02:28.192Z,1006.47
2018-05-01T06:03:28.212Z,1006.41
2018-05-01T06:04:28.307Z,1006.46
2018-05-01T06:05:28.245Z,1006.51
2018-05-01T06:06:28.255Z,1006.46
2018-05-01T06:07:28.274Z,1006.43
2018-05-01T06:08:28.284Z,1006.50
2018-05-01T06:09:28.305Z,1006.49
2018-05-01T06:10:28.368Z,1006.50
2018-05-01T06:11:28.337Z,1006.47
2018-05-01T06:12:28.348Z,1006.48
2018-05-01T06:13:28.412Z,1006.54
2018-05-01T06:14:28.382Z,1006.52
2018-05-01T06:15:28.398Z,1006.47
2018-05-01T06:16:28.415Z,1006.54
2018-05-01T06:17:28.425Z,1006.51
2018-05-01T06:18:28.442Z,1006.50
2018-05-01T06:19:28.454Z,1006.51
2018-05-01T06:20:28.473Z,1006.57
2018-05-01T06:21:28.485Z,1006.54
2018-05-01T06:22:28.533Z,1006.53
2018-05-01T06:23:28.522Z,1006.54
2018-05-01T06:24:28.536Z,1006.54
2018-05-01T06:25:28.553Z,1006.55
2018-05-01T06:26:28.578Z,1006.51
2018-05-01T06:27:28.586Z,1006.55
2018-05-01T06:28:28.649Z,1006.53
2018-05-01T06:29:28.610Z,1006.59
2018-05-01T06:30:28.631Z,1006.56
2018-05-01T06:31:28.645Z,1006.56
2018-05-01T06:32:28.664Z,1006.59
2018-05-01T06:33:28.680Z,1006.57
2018-05-01T06:34:28.819Z,1006.62
2018-05-01T06:35:28.708Z,1006.62
2018-05-01T06:36:28.727Z,1006.60
2018-05-01T06:37:28.786Z,1006.62
2018-05-01T06:38:28.756Z,1006.64
2018-05-01T06:39:28.774Z,1006.65
2018-05-01T06:40:28.889Z,1006.69
2018-05-01T06:41:28.804Z,1006.69
2018-05-01T06:42:28.818Z,1006.71
2018-05-01T06:43:28.837Z,1006.70
2018-05-01T06:44:28.866Z,1006.69
2018-05-01T06:45:28.868Z,1006.71
2018-05-01T06:46:28.939Z,1006.71
2018-05-01T06:47:28.901Z,1006.67
2018-05-01T06:48:28.914Z,1006.72
2018-05-01T06:49:28.930Z,1006.73
2018-05-01T06:50:28.945Z,1006.74
2018-05-01T06:51:28.960Z,1006.72
2018-05-01T06:52:28.977Z,1006.81
2018-05-01T06:53:28.991Z,1006.79
2018-05-01T06:54:29.007Z,1006.84
2018-05-01T06:55:29.026Z,1006.87
2018-05-01T06:56:29.040Z,1006.86
2018-05-01T06:57:29.059Z,1006.87
2018-05-01T06:58:29.076Z,1006.82
2018-05-01T06:59:29.090Z,1006.76
2018-05-01T07:00:29.107Z,1006.85
2018-05-01T07:01:29.121Z,1006.86
2018-05-01T07:02:29.138Z,1006.86
2018-05-01T07:03:29.218Z,1006.91
2018-05-01T07:04:29.194Z,1006.88
2018-05-01T07:05:29.184Z,1006.92
2018-05-01T07:06:29.208Z,1006.93
2018-05-01T07:07:29.222Z,1006.93
2018-05-01T07:08:29.243Z,1006.91
2018-05-01T07:09:29.256Z,1006.91
2018-05-01T07:10:29.275Z,1006.95
2018-05-01T07:11:29.292Z,1006.97
2018-05-01T07:12:29.308Z,1006.96
2018-05-01T07:13:29.319Z,1007.01
2018-05-01T07:14:29.336Z,1007.01
2018-05-01T07:15:29.445Z,1007.02
2018-05-01T07:16:29.376Z,1007.01
2018-05-01T07:17:29.390Z,1007.02
2018-05-01T07:18:29.409Z,1007.04
2018-05-01T07:19:29.423Z,1007.07
2018-05-01T07:20:29.436Z,1007.03
2018-05-01T07:21:29.453Z,1007.12
2018-05-01T07:22:29.478Z,1007.06
2018-05-01T07:23:29.496Z,1007.06
2018-05-01T07:24:29.509Z,1007.06
2018-05-01T07:25:29.583Z,1007.09
2018-05-01T07:26:29.543Z,1007.18
2018-05-01T07:27:29.601Z,1007.16
2018-05-01T07:28:29.630Z,1007.19
2018-05-01T07:29:29.598Z,1007.19
2018-05-01T07:30:29.609Z,1007.18
2018-05-01T07:31:29.629Z,1007.19
2018-05-01T07:32:29.647Z,1007.19
2018-05-01T07:33:29.668Z,1007.23
2018-05-01T07:34:29.736Z,1007.22
2018-05-01T07:35:29.738Z,1007.21
2018-05-01T07:36:29.716Z,1007.25
2018-05-01T07:37:29.736Z,1007.25
2018-05-01T07:38:29.780Z,1007.26
2018-05-01T07:39:29.774Z,1007.32
2018-05-01T07:40:29.795Z,1007.30
2018-05-01T07:41:29.826Z,1007.32
2018-05-01T07:42:29.823Z,1007.35
2018-05-01T07:43:29.839Z,1007.29
2018-05-01T07:44:29.874Z,1007.29
2018-05-01T07:45:29.883Z,1007.32
2018-05-01T07:46:29.948Z,1007.34
2018-05-01T07:47:29.917Z,1007.37
2018-05-01T07:48:29.928Z,1007.32
2018-05-01T07:49:29.948Z,1007.38
2018-05-01T07:50:30.017Z,1007.35
2018-05-01T07:51:29.982Z,1007.31
2018-05-01T07:52:30.016Z,1007.32
2018-05-01T07:53:30.043Z,1007.42
2018-05-01T07:54:30.038Z,1007.37
2018-05-01T07:55:30.055Z,1007.33
2018-05-01T07:56:30.097Z,1007.35
2018-05-01T07:57:30.098Z,1007.35
2018-05-01T07:58:30.115Z,1007.41
2018-05-01T07:59:30.127Z,1007.35
2018-05-01T08:00:30.149Z,1007.42
2018-05-01T08:01:30.162Z,1007.36
2018-05-01T08:02:30.202Z,1007.38
2018-05-01T08:03:30.199Z,1007.42
2018-05-01T08:04:30.223Z,1007.39
2018-05-01T08:05:30.241Z,1007.41
2018-05-01T08:06:30.255Z,1007.40
2018-05-01T08:07:30.278Z,1007.42
2018-05-01T08:08:30.290Z,1007.42
2018-05-01T08:09:30.315Z,1007.41
2018-05-01T08:10:30.396Z,1007.43
2018-05-01T08:11:30.358Z,1007.47
2018-05-01T08:12:30.362Z,1007.50
2018-05-01T08:13:30.385Z,1007.52
2018-05-01T08:14:30.403Z,1007.56
2018-05-01T08:15:30.426Z,1007.47
2018-05-01T08:16:30.444Z,1007.50
2018-05-01T08:17:30.453Z,1007.55
2018-05-01T08:18:30.484Z,1007.40
2018-05-01T08:19:30.498Z,1007.49
2018-05-01T08:20:30.510Z,1007.46
2018-05-01T08:21:30.528Z,1007.52
2018-05-01T08:22:30.596Z,1007.53
2018-05-01T08:23:30.574Z,1007.50
2018-05-01T08:24:30.664Z,1007.53
2018-05-01T08:25:30.632Z,1007.54
2018-05-01T08:26:30.619Z,1007.51
2018-05-01T08:27:30.645Z,1007.58
2018-05-01T08:28:30.714Z,1007.43
2018-05-01T08:29:30.679Z,1007.58
2018-05-01T08:30:30.817Z,1007.52
2018-05-01T08:31:30.719Z,1007.48
2018-05-01T08:32:30.734Z,1007.54
2018-05-01T08:33:30.764Z,1007.60
2018-05-01T08:34:30.832Z,1007.52
2018-05-01T08:35:30.793Z,1007.50
2018-05-01T08:36:30.806Z,1007.49
2018-05-01T08:37:30.829Z,1007.51
2018-05-01T08:38:30.847Z,1007.47
2018-05-01T08:39:30.865Z,1007.53
2018-05-01T08:40:30.881Z,1007.58
2018-05-01T08:41:30.909Z,1007.58
2018-05-01T08:42:30.925Z,1007.61
2018-05-01T08:43:30.939Z,1007.62
2018-05-01T08:44:30.959Z,1007.60
2018-05-01T08:45:30.980Z,1007.61
2018-05-01T08:46:31.048Z,1007.68
2018-05-01T08:47:31.017Z,1007.60
2018-05-01T08:48:31.065Z,1007.66
2018-05-01T08:49:31.054Z,1007.73
2018-05-01T08:50:31.072Z,1007.68
2018-05-01T08:51:31.098Z,1007.66
2018-05-01T08:52:31.169Z,1007.52
2018-05-01T08:53:31.132Z,1007.60
2018-05-01T08:54:31.207Z,1007.55
2018-05-01T08:55:31.170Z,1007.64
2018-05-01T08:56:31.186Z,1007.69
2018-05-01T08:57:31.208Z,1007.67
2018-05-01T08:58:31.278Z,1007.70
2018-05-01T08:59:31.250Z,1007.59
2018-05-01T09:00:31.297Z,1007.66
2018-05-01T09:01:31.286Z,1007.53
2018-05-01T09:02:31.309Z,1007.72
2018-05-01T09:03:31.321Z,1007.66
2018-05-01T09:04:31.341Z,1007.72
2018-05-01T09:05:31.360Z,1007.67
2018-05-01T09:06:31.382Z,1007.80
2018-05-01T09:07:31.403Z,1007.68
2018-05-01T09:08:31.421Z,1007.77
2018-05-01T09:09:31.526Z,1007.72
2018-05-01T09:10:31.462Z,1007.79
2018-05-01T09:11:31.478Z,1007.78
2018-05-01T09:12:31.498Z,1007.77
2018-05-01T09:13:31.523Z,1007.77
2018-05-01T09:14:31.538Z,1007.79
2018-05-01T09:15:31.563Z,1007.82
2018-05-01T09:16:31.632Z,1007.73
2018-05-01T09:17:31.641Z,1007.79
2018-05-01T09:18:31.614Z,1007.80
2018-05-01T09:19:31.638Z,1007.84
2018-05-01T09:20:31.656Z,1007.83
2018-05-01T09:21:31.674Z,1007.81
2018-05-01T09:22:31.699Z,1007.84
2018-05-01T09:23:31.753Z,1007.83
2018-05-01T09:24:31.734Z,1007.86
2018-05-01T09:25:31.859Z,1007.85
2018-05-01T09:26:31.782Z,1007.89
2018-05-01T09:27:31.796Z,1007.82
2018-05-01T09:28:31.890Z,1007.95
2018-05-01T09:29:31.900Z,1007.86
2018-05-01T09:30:31.860Z,1007.78
2018-05-01T09:31:31.880Z,1007.82
2018-05-01T09:32:31.898Z,1007.84
2018-05-01T09:33:31.917Z,1007.92
2018-05-01T09:34:31.937Z,1007.87
2018-05-01T09:35:31.954Z,1007.95
2018-05-01T09:36:31.981Z,1007.88
2018-05-01T09:37:31.996Z,1007.91
2018-05-01T09:38:32.019Z,1007.86
2018-05-01T09:39:32.045Z,1007.90
2018-05-01T09:40:32.147Z,1007.93
2018-05-01T09:41:32.079Z,1007.79
2018-05-01T09:42:32.098Z,1007.93
2018-05-01T09:43:32.120Z,1007.82
2018-05-01T09:44:32.145Z,1007.76
2018-05-01T09:45:32.162Z,1007.89
2018-05-01T09:46:32.181Z,1007.96
2018-05-01T09:47:32.221Z,1007.97
2018-05-01T09:48:32.226Z,1007.99
2018-05-01T09:49:32.246Z,1007.93
2018-05-01T09:50:32.266Z,1007.97
2018-05-01T09:51:32.297Z,1008.05
2018-05-01T09:52:32.311Z,1008.01
2018-05-01T09:53:32.323Z,1007.93
2018-05-01T09:54:32.342Z,1007.96
2018-05-01T09:55:32.362Z,1008.03
2018-05-01T09:56:32.391Z,1007.95
2018-05-01T09:57:32.495Z,1007.99
2018-05-01T09:58:32.466Z,1007.97
2018-05-01T09:59:32.452Z,1008.04
2018-05-01T10:00:32.465Z,1008.00
2018-05-01T10:01:32.492Z,1007.98
2018-05-01T10:02:32.509Z,1007.99
2018-05-01T10:03:32.574Z,1007.96
2018-05-01T10:04:32.606Z,1008.01
2018-05-01T10:05:32.571Z,1008.05
2018-05-01T10:06:32.591Z,1007.95
2018-05-01T10:07:32.620Z,1007.95
2018-05-01T10:08:32.692Z,1007.94
2018-05-01T10:09:32.658Z,1007.99
2018-05-01T10:10:32.673Z,1007.99
2018-05-01T10:11:32.697Z,1007.97
2018-05-01T10:12:32.716Z,1007.86
2018-05-01T10:13:32.741Z,1007.85
2018-05-01T10:14:32.763Z,1007.92
2018-05-01T10:15:32.783Z,1007.84
2018-05-01T10:16:32.798Z,1007.95
2018-05-01T10:17:32.817Z,1007.88
2018-05-01T10:18:32.840Z,1007.91
2018-05-01T10:19:32.859Z,1007.96
2018-05-01T10:20:32.883Z,1007.96
2018-05-01T10:21:32.910Z,1008.00
2018-05-01T10:22:32.923Z,1008.02
2018-05-01T10:23:32.951Z,1008.00
2018-05-01T10:24:32.965Z,1007.98
2018-05-01T10:25:32.990Z,1007.97
2018-05-01T10:26:33.030Z,1008.03
2018-05-01T10:27:33.031Z,1008.06
2018-05-01T10:28:33.056Z,1007.99
2018-05-01T10:29:33.077Z,1007.89
2018-05-01T10:30:33.092Z,1007.95
2018-05-01T10:31:33.117Z,1008.06
2018-05-01T10:32:33.139Z,1008.05
2018-05-01T10:33:33.158Z,1008.01
2018-05-01T10:34:33.179Z,1007.97
2018-05-01T10:35:33.200Z,1008.01
2018-05-01T10:36:33.225Z,1007.92
2018-05-01T10:37:33.257Z,1007.90
2018-05-01T10:38:33.309Z,1007.99
2018-05-01T10:39:33.285Z,1007.96
2018-05-01T10:40:33.305Z,1007.95
2018-05-01T10:41:33.333Z,1007.92
2018-05-01T10:42:33.353Z,1007.93
2018-05-01T10:43:33.448Z,1007.96
2018-05-01T10:44:33.390Z,1007.87
2018-05-01T10:45:33.416Z,1007.89
2018-05-01T10:46:33.490Z,1007.89
2018-05-01T10:47:33.465Z,1007.88
2018-05-01T10:48:33.499Z,1007.90
2018-05-01T10:49:33.544Z,1007.86
2018-05-01T10:50:33.520Z,1007.86
2018-05-01T10:51:33.542Z,1007.89
2018-05-01T10:52:33.618Z,1007.81
2018-05-01T10:53:33.589Z,1007.80
2018-05-01T10:54:33.626Z,1007.77
2018-05-01T10:55:33.633Z,1007.86
2018-05-01T10:56:33.652Z,1007.85
2018-05-01T10:57:33.674Z,1007.84
2018-05-01T10:58:33.704Z,1007.86
2018-05-01T10:59:33.720Z,1007.96
2018-05-01T11:00:33.814Z,1007.82
2018-05-01T11:01:33.757Z,1007.96
2018-05-01T11:02:33.778Z,1007.86
2018-05-01T11:03:33.805Z,1007.87
2018-05-01T11:04:33.819Z,1007.95
2018-05-01T11:05:33.839Z,1008.03
2018-05-01T11:06:33.882Z,1007.91
2018-05-01T11:07:33.883Z,1008.00
2018-05-01T11:08:33.905Z,1008.04
2018-05-01T11:09:33.929Z,1008.00
2018-05-01T11:10:33.950Z,1007.98
2018-05-01T11:11:33.964Z,1007.93
2018-05-01T11:12:33.989Z,1008.13
2018-05-01T11:13:34.012Z,1008.02
2018-05-01T11:14:34.031Z,1008.05
2018-05-01T11:15:34.052Z,1008.03
2018-05-01T11:16:34.077Z,1008.00
2018-05-01T11:18:34.155Z,1007.99
2018-05-01T11:19:34.138Z,1007.97
2018-05-01T11:20:34.161Z,1007.95
2018-05-01T11:21:34.175Z,1007.90
2018-05-01T11:22:34.197Z,1007.86
2018-05-01T11:23:34.219Z,1007.90
2018-05-01T11:24:34.268Z,1007.88
2018-05-01T11:25:34.263Z,1007.90
2018-05-01T11:26:34.283Z,1007.89
2018-05-01T11:27:34.306Z,1007.86
2018-05-01T11:28:34.381Z,1007.88
2018-05-01T11:29:34.349Z,1007.70
2018-05-01T11:30:34.370Z,1007.86
2018-05-01T11:31:34.389Z,1007.91
2018-05-01T11:32:34.413Z,1007.91
2018-05-01T11:33:34.453Z,1007.92
2018-05-01T11:34:34.518Z,1007.96
2018-05-01T11:35:34.479Z,1008.00
2018-05-01T11:36:34.497Z,1007.90
2018-05-01T11:37:34.524Z,1008.00
2018-05-01T11:38:34.539Z,1007.87
2018-05-01T11:39:34.564Z,1007.91
2018-05-01T11:40:34.699Z,1008.02
2018-05-01T11:41:34.602Z,1008.00
2018-05-01T11:42:34.632Z,1007.90
2018-05-01T11:43:34.653Z,1007.97
2018-05-01T11:44:34.682Z,1008.03
2018-05-01T11:45:34.693Z,1007.98
2018-05-01T11:46:34.721Z,1008.03
2018-05-01T11:47:34.736Z,1007.86
2018-05-01T11:48:34.763Z,1008.04
2018-05-01T11:49:34.783Z,1007.99
2018-05-01T11:50:34.806Z,1007.93
2018-05-01T11:51:34.898Z,1007.89
2018-05-01T11:52:34.855Z,1007.95
2018-05-01T11:53:34.947Z,1008.01
2018-05-01T11:54:34.890Z,1007.99
2018-05-01T11:55:34.921Z,1007.93
2018-05-01T11:56:34.940Z,1007.96
2018-05-01T11:57:35.030Z,1007.90
2018-05-01T11:58:35.043Z,1007.88
2018-05-01T11:59:35.007Z,1007.79
2018-05-01T12:00:35.028Z,1007.82
2018-05-01T12:01:35.104Z,1007.83
2018-05-01T12:02:35.088Z,1007.78
2018-05-01T12:03:35.098Z,1007.80
2018-05-01T12:04:35.294Z,1007.78
2018-05-01T12:05:35.144Z,1007.76
2018-05-01T12:06:35.164Z,1007.80